sensor_id;sensor_type;location;lat;lon;timestamp;temperature;humidity
74364;DHT22;62797;49.740;10.154;2022-08-19T00:01:09;22.70;32.80
74364;DHT22;62797;49.740;10.154;2022-08-19T00:03:35;22.70;32.80
74364;DHT22;62797;49.740;10.154;2022-08-19T00:06:00;22.70;32.90
74364;DHT22;62797;49.740;10.154;2022-08-19T00:08:26;22.70;32.90
74364;DHT22;62797;49.740;10.154;2022-08-19T00:10:51;22.60;33.30
74364;DHT22;62797;49.740;10.154;2022-08-19T00:13:17;22.60;33.40
74364;DHT22;62797;49.740;10.154;2022-08-19T00:15:42;22.60;33.30
74364;DHT22;62797;49.740;10.154;2022-08-19T00:18:09;22.50;33.80
74364;DHT22;62797;49.740;10.154;2022-08-19T00:20:35;22.40;33.80
74364;DHT22;62797;49.740;10.154;2022-08-19T00:23:05;22.50;33.50
74364;DHT22;62797;49.740;10.154;2022-08-19T00:25:31;22.50;34.00
74364;DHT22;62797;49.740;10.154;2022-08-19T00:27:56;22.40;33.80
74364;DHT22;62797;49.740;10.154;2022-08-19T00:30:22;22.40;34.30
74364;DHT22;62797;49.740;10.154;2022-08-19T00:32:47;22.30;34.40
74364;DHT22;62797;49.740;10.154;2022-08-19T00:35:13;22.40;34.10
74364;DHT22;62797;49.740;10.154;2022-08-19T00:37:38;22.30;34.10
74364;DHT22;62797;49.740;10.154;2022-08-19T00:40:10;22.30;34.70
74364;DHT22;62797;49.740;10.154;2022-08-19T00:42:36;22.30;34.70
74364;DHT22;62797;49.740;10.154;2022-08-19T00:45:03;22.20;34.90
74364;DHT22;62797;49.740;10.154;2022-08-19T00:47:33;22.20;35.00
74364;DHT22;62797;49.740;10.154;2022-08-19T00:49:59;22.10;35.30
74364;DHT22;62797;49.740;10.154;2022-08-19T00:52:29;22.10;35.60
74364;DHT22;62797;49.740;10.154;2022-08-19T00:54:55;22.00;35.50
74364;DHT22;62797;49.740;10.154;2022-08-19T00:57:23;22.00;35.80
74364;DHT22;62797;49.740;10.154;2022-08-19T00:59:50;22.00;35.80
74364;DHT22;62797;49.740;10.154;2022-08-19T01:02:18;22.00;35.70
74364;DHT22;62797;49.740;10.154;2022-08-19T01:04:44;22.00;35.80
74364;DHT22;62797;49.740;10.154;2022-08-19T01:07:09;21.90;36.00
74364;DHT22;62797;49.740;10.154;2022-08-19T01:09:35;22.00;36.30
74364;DHT22;62797;49.740;10.154;2022-08-19T01:12:00;21.90;36.50
74364;DHT22;62797;49.740;10.154;2022-08-19T01:14:26;21.90;36.30
74364;DHT22;62797;49.740;10.154;2022-08-19T01:16:52;21.90;36.10
74364;DHT22;62797;49.740;10.154;2022-08-19T01:19:27;21.90;36.50
74364;DHT22;62797;49.740;10.154;2022-08-19T01:24:39;21.80;36.60
74364;DHT22;62797;49.740;10.154;2022-08-19T01:27:05;21.80;36.30
74364;DHT22;62797;49.740;10.154;2022-08-19T01:29:31;21.70;37.00
74364;DHT22;62797;49.740;10.154;2022-08-19T01:31:57;21.60;37.20
74364;DHT22;62797;49.740;10.154;2022-08-19T01:34:22;21.70;36.90
74364;DHT22;62797;49.740;10.154;2022-08-19T01:36:48;21.70;36.80
74364;DHT22;62797;49.740;10.154;2022-08-19T01:39:16;21.70;37.20
74364;DHT22;62797;49.740;10.154;2022-08-19T01:41:42;21.70;37.20
74364;DHT22;62797;49.740;10.154;2022-08-19T01:44:08;21.70;37.60
74364;DHT22;62797;49.740;10.154;2022-08-19T01:46:34;21.70;37.70
74364;DHT22;62797;49.740;10.154;2022-08-19T01:49:00;21.70;37.70
74364;DHT22;62797;49.740;10.154;2022-08-19T01:51:26;21.80;37.50
74364;DHT22;62797;49.740;10.154;2022-08-19T01:53:51;21.80;37.20
74364;DHT22;62797;49.740;10.154;2022-08-19T01:56:17;21.70;37.60
74364;DHT22;62797;49.740;10.154;2022-08-19T01:58:44;21.70;38.10
74364;DHT22;62797;49.740;10.154;2022-08-19T02:01:12;21.70;38.10
74364;DHT22;62797;49.740;10.154;2022-08-19T02:03:39;21.50;38.90
74364;DHT22;62797;49.740;10.154;2022-08-19T02:06:04;21.50;38.50
74364;DHT22;62797;49.740;10.154;2022-08-19T02:08:31;21.60;38.40
74364;DHT22;62797;49.740;10.154;2022-08-19T02:10:56;21.50;38.60
74364;DHT22;62797;49.740;10.154;2022-08-19T02:13:24;21.50;38.40
74364;DHT22;62797;49.740;10.154;2022-08-19T02:15:50;21.40;39.00
74364;DHT22;62797;49.740;10.154;2022-08-19T02:18:16;21.30;39.50
74364;DHT22;62797;49.740;10.154;2022-08-19T02:20:42;21.30;39.20
74364;DHT22;62797;49.740;10.154;2022-08-19T02:23:08;21.30;39.00
74364;DHT22;62797;49.740;10.154;2022-08-19T02:25:34;21.40;39.10
74364;DHT22;62797;49.740;10.154;2022-08-19T02:27:59;21.50;38.80
74364;DHT22;62797;49.740;10.154;2022-08-19T02:30:25;21.50;39.00
74364;DHT22;62797;49.740;10.154;2022-08-19T02:32:50;21.60;38.40
74364;DHT22;62797;49.740;10.154;2022-08-19T02:35:16;21.60;38.60
74364;DHT22;62797;49.740;10.154;2022-08-19T02:37:42;21.70;38.10
74364;DHT22;62797;49.740;10.154;2022-08-19T02:40:27;21.70;37.90
74364;DHT22;62797;49.740;10.154;2022-08-19T02:42:52;21.70;37.80
74364;DHT22;62797;49.740;10.154;2022-08-19T02:45:18;21.80;37.60
74364;DHT22;62797;49.740;10.154;2022-08-19T02:47:43;21.80;37.50
74364;DHT22;62797;49.740;10.154;2022-08-19T02:50:09;21.80;37.40
74364;DHT22;62797;49.740;10.154;2022-08-19T02:52:34;21.80;37.30
74364;DHT22;62797;49.740;10.154;2022-08-19T02:55:00;21.70;38.00
74364;DHT22;62797;49.740;10.154;2022-08-19T02:57:26;21.60;38.10
74364;DHT22;62797;49.740;10.154;2022-08-19T02:59:52;21.40;38.80
74364;DHT22;62797;49.740;10.154;2022-08-19T03:02:17;21.40;39.10
74364;DHT22;62797;49.740;10.154;2022-08-19T03:04:43;21.30;39.50
74364;DHT22;62797;49.740;10.154;2022-08-19T03:07:09;21.20;39.60
74364;DHT22;62797;49.740;10.154;2022-08-19T03:09:37;21.20;39.60
74364;DHT22;62797;49.740;10.154;2022-08-19T03:12:05;21.10;40.20
74364;DHT22;62797;49.740;10.154;2022-08-19T03:14:32;21.00;40.70
74364;DHT22;62797;49.740;10.154;2022-08-19T03:16:57;21.00;40.00
74364;DHT22;62797;49.740;10.154;2022-08-19T03:19:23;21.00;40.40
74364;DHT22;62797;49.740;10.154;2022-08-19T03:21:48;21.00;40.10
74364;DHT22;62797;49.740;10.154;2022-08-19T03:24:14;21.00;40.30
74364;DHT22;62797;49.740;10.154;2022-08-19T03:26:41;21.10;40.10
74364;DHT22;62797;49.740;10.154;2022-08-19T03:29:07;21.10;40.10
74364;DHT22;62797;49.740;10.154;2022-08-19T03:31:36;21.10;40.00
74364;DHT22;62797;49.740;10.154;2022-08-19T03:34:02;21.10;40.20
74364;DHT22;62797;49.740;10.154;2022-08-19T03:36:27;21.10;39.80
74364;DHT22;62797;49.740;10.154;2022-08-19T03:38:57;21.10;39.90
74364;DHT22;62797;49.740;10.154;2022-08-19T03:41:24;21.10;39.80
74364;DHT22;62797;49.740;10.154;2022-08-19T03:43:50;21.10;40.10
74364;DHT22;62797;49.740;10.154;2022-08-19T03:46:17;21.10;39.70
74364;DHT22;62797;49.740;10.154;2022-08-19T03:48:43;21.10;40.20
74364;DHT22;62797;49.740;10.154;2022-08-19T03:51:16;21.10;39.80
74364;DHT22;62797;49.740;10.154;2022-08-19T03:53:42;21.10;39.80
74364;DHT22;62797;49.740;10.154;2022-08-19T03:56:08;21.00;39.70
74364;DHT22;62797;49.740;10.154;2022-08-19T03:58:34;21.10;40.20
74364;DHT22;62797;49.740;10.154;2022-08-19T04:01:00;21.00;39.90
74364;DHT22;62797;49.740;10.154;2022-08-19T04:03:25;21.00;39.70
74364;DHT22;62797;49.740;10.154;2022-08-19T04:05:52;21.10;39.80
74364;DHT22;62797;49.740;10.154;2022-08-19T04:08:18;21.10;39.90
74364;DHT22;62797;49.740;10.154;2022-08-19T04:10:46;21.10;40.00
74364;DHT22;62797;49.740;10.154;2022-08-19T04:13:11;21.10;39.90
74364;DHT22;62797;49.740;10.154;2022-08-19T04:15:40;21.10;39.70
74364;DHT22;62797;49.740;10.154;2022-08-19T04:18:07;21.10;39.90
74364;DHT22;62797;49.740;10.154;2022-08-19T04:20:38;21.00;40.10
74364;DHT22;62797;49.740;10.154;2022-08-19T04:23:04;21.00;40.30
74364;DHT22;62797;49.740;10.154;2022-08-19T04:25:34;21.00;40.20
74364;DHT22;62797;49.740;10.154;2022-08-19T04:27:59;21.10;40.20
74364;DHT22;62797;49.740;10.154;2022-08-19T04:30:25;21.10;40.00
74364;DHT22;62797;49.740;10.154;2022-08-19T04:32:50;21.10;40.00
74364;DHT22;62797;49.740;10.154;2022-08-19T04:35:16;21.20;39.50
74364;DHT22;62797;49.740;10.154;2022-08-19T04:37:41;21.20;39.30
74364;DHT22;62797;49.740;10.154;2022-08-19T04:40:07;21.30;39.70
74364;DHT22;62797;49.740;10.154;2022-08-19T04:42:51;21.40;39.10
74364;DHT22;62797;49.740;10.154;2022-08-19T04:45:16;21.40;38.90
74364;DHT22;62797;49.740;10.154;2022-08-19T04:47:42;21.40;39.10
74364;DHT22;62797;49.740;10.154;2022-08-19T04:50:09;21.30;39.60
74364;DHT22;62797;49.740;10.154;2022-08-19T04:52:36;21.30;39.40
74364;DHT22;62797;49.740;10.154;2022-08-19T04:55:02;21.20;39.60
74364;DHT22;62797;49.740;10.154;2022-08-19T04:57:30;21.30;39.70
74364;DHT22;62797;49.740;10.154;2022-08-19T04:59:56;21.20;39.80
74364;DHT22;62797;49.740;10.154;2022-08-19T05:02:22;21.20;39.90
74364;DHT22;62797;49.740;10.154;2022-08-19T05:04:51;21.10;40.50
74364;DHT22;62797;49.740;10.154;2022-08-19T05:07:21;21.00;41.20
74364;DHT22;62797;49.740;10.154;2022-08-19T05:09:46;21.10;41.10
74364;DHT22;62797;49.740;10.154;2022-08-19T05:12:11;21.20;40.80
74364;DHT22;62797;49.740;10.154;2022-08-19T05:14:37;21.30;40.30
74364;DHT22;62797;49.740;10.154;2022-08-19T05:17:02;21.40;39.90
74364;DHT22;62797;49.740;10.154;2022-08-19T05:19:28;21.50;39.60
74364;DHT22;62797;49.740;10.154;2022-08-19T05:22:12;21.60;39.30
74364;DHT22;62797;49.740;10.154;2022-08-19T05:24:56;21.70;38.90
74364;DHT22;62797;49.740;10.154;2022-08-19T05:27:22;21.70;38.90
74364;DHT22;62797;49.740;10.154;2022-08-19T05:29:47;21.70;38.90
74364;DHT22;62797;49.740;10.154;2022-08-19T05:32:13;21.80;39.10
74364;DHT22;62797;49.740;10.154;2022-08-19T05:34:38;21.80;38.80
74364;DHT22;62797;49.740;10.154;2022-08-19T05:37:04;21.70;38.80
74364;DHT22;62797;49.740;10.154;2022-08-19T05:39:31;21.80;38.80
74364;DHT22;62797;49.740;10.154;2022-08-19T05:41:59;21.90;38.60
74364;DHT22;62797;49.740;10.154;2022-08-19T05:44:27;21.80;38.30
74364;DHT22;62797;49.740;10.154;2022-08-19T05:46:53;21.80;38.40
74364;DHT22;62797;49.740;10.154;2022-08-19T05:49:20;21.70;38.60
74364;DHT22;62797;49.740;10.154;2022-08-19T05:51:46;21.60;39.20
74364;DHT22;62797;49.740;10.154;2022-08-19T05:54:11;21.50;39.40
74364;DHT22;62797;49.740;10.154;2022-08-19T05:56:39;21.70;38.90
74364;DHT22;62797;49.740;10.154;2022-08-19T05:59:06;21.80;38.30
74364;DHT22;62797;49.740;10.154;2022-08-19T06:01:35;21.70;38.40
74364;DHT22;62797;49.740;10.154;2022-08-19T06:04:00;21.80;38.40
74364;DHT22;62797;49.740;10.154;2022-08-19T06:06:26;21.80;38.50
74364;DHT22;62797;49.740;10.154;2022-08-19T06:08:51;21.90;38.30
74364;DHT22;62797;49.740;10.154;2022-08-19T06:11:21;21.90;38.10
74364;DHT22;62797;49.740;10.154;2022-08-19T06:13:48;21.80;38.20
74364;DHT22;62797;49.740;10.154;2022-08-19T06:16:15;22.00;38.10
74364;DHT22;62797;49.740;10.154;2022-08-19T06:18:48;22.10;37.80
74364;DHT22;62797;49.740;10.154;2022-08-19T06:21:13;22.10;37.60
74364;DHT22;62797;49.740;10.154;2022-08-19T06:23:39;22.20;37.60
74364;DHT22;62797;49.740;10.154;2022-08-19T06:26:05;22.20;37.50
74364;DHT22;62797;49.740;10.154;2022-08-19T06:28:31;22.30;37.40
74364;DHT22;62797;49.740;10.154;2022-08-19T06:30:58;22.30;37.90
74364;DHT22;62797;49.740;10.154;2022-08-19T06:33:23;22.20;37.40
74364;DHT22;62797;49.740;10.154;2022-08-19T06:35:49;22.20;37.30
74364;DHT22;62797;49.740;10.154;2022-08-19T06:38:14;22.30;37.40
74364;DHT22;62797;49.740;10.154;2022-08-19T06:40:40;22.20;37.50
74364;DHT22;62797;49.740;10.154;2022-08-19T06:43:06;22.20;37.40
74364;DHT22;62797;49.740;10.154;2022-08-19T06:45:31;22.30;37.10
74364;DHT22;62797;49.740;10.154;2022-08-19T06:47:57;22.40;37.00
74364;DHT22;62797;49.740;10.154;2022-08-19T06:50:23;22.40;37.10
74364;DHT22;62797;49.740;10.154;2022-08-19T06:52:48;22.40;37.10
74364;DHT22;62797;49.740;10.154;2022-08-19T06:55:14;22.40;37.00
74364;DHT22;62797;49.740;10.154;2022-08-19T06:57:40;22.30;37.10
74364;DHT22;62797;49.740;10.154;2022-08-19T07:00:08;22.40;37.20
74364;DHT22;62797;49.740;10.154;2022-08-19T07:02:36;22.40;37.00
74364;DHT22;62797;49.740;10.154;2022-08-19T07:05:02;22.40;36.80
74364;DHT22;62797;49.740;10.154;2022-08-19T07:07:28;22.40;36.60
74364;DHT22;62797;49.740;10.154;2022-08-19T07:09:54;22.40;37.00
74364;DHT22;62797;49.740;10.154;2022-08-19T07:12:19;22.40;37.20
74364;DHT22;62797;49.740;10.154;2022-08-19T07:14:45;22.40;37.10
74364;DHT22;62797;49.740;10.154;2022-08-19T07:17:11;22.50;36.90
74364;DHT22;62797;49.740;10.154;2022-08-19T07:19:37;22.60;36.60
74364;DHT22;62797;49.740;10.154;2022-08-19T07:22:03;22.60;36.80
74364;DHT22;62797;49.740;10.154;2022-08-19T07:24:29;22.70;37.10
74364;DHT22;62797;49.740;10.154;2022-08-19T07:26:56;22.80;36.30
74364;DHT22;62797;49.740;10.154;2022-08-19T07:29:22;22.80;36.10
74364;DHT22;62797;49.740;10.154;2022-08-19T07:31:51;22.70;36.30
74364;DHT22;62797;49.740;10.154;2022-08-19T07:34:17;22.60;36.60
74364;DHT22;62797;49.740;10.154;2022-08-19T07:36:43;22.70;36.80
74364;DHT22;62797;49.740;10.154;2022-08-19T07:39:10;22.70;36.60
74364;DHT22;62797;49.740;10.154;2022-08-19T07:41:36;22.80;36.20
74364;DHT22;62797;49.740;10.154;2022-08-19T07:44:02;22.80;36.30
74364;DHT22;62797;49.740;10.154;2022-08-19T07:46:32;22.80;36.00
74364;DHT22;62797;49.740;10.154;2022-08-19T07:48:58;22.80;36.00
74364;DHT22;62797;49.740;10.154;2022-08-19T07:51:23;22.80;36.30
74364;DHT22;62797;49.740;10.154;2022-08-19T07:53:49;22.80;36.20
74364;DHT22;62797;49.740;10.154;2022-08-19T07:56:16;22.70;36.10
74364;DHT22;62797;49.740;10.154;2022-08-19T07:58:43;22.80;36.40
74364;DHT22;62797;49.740;10.154;2022-08-19T08:01:10;22.80;36.50
74364;DHT22;62797;49.740;10.154;2022-08-19T08:03:36;22.90;36.30
74364;DHT22;62797;49.740;10.154;2022-08-19T08:06:21;23.10;36.00
74364;DHT22;62797;49.740;10.154;2022-08-19T08:09:05;23.20;35.10
74364;DHT22;62797;49.740;10.154;2022-08-19T08:11:38;23.20;35.00
74364;DHT22;62797;49.740;10.154;2022-08-19T08:14:04;23.10;35.30
74364;DHT22;62797;49.740;10.154;2022-08-19T08:16:33;23.10;35.30
74364;DHT22;62797;49.740;10.154;2022-08-19T08:18:58;23.00;35.60
74364;DHT22;62797;49.740;10.154;2022-08-19T08:21:24;23.10;35.70
74364;DHT22;62797;49.740;10.154;2022-08-19T08:23:50;23.10;35.40
74364;DHT22;62797;49.740;10.154;2022-08-19T08:26:17;23.20;35.40
74364;DHT22;62797;49.740;10.154;2022-08-19T08:28:42;23.20;35.30
74364;DHT22;62797;49.740;10.154;2022-08-19T08:31:07;23.30;35.60
74364;DHT22;62797;49.740;10.154;2022-08-19T08:33:34;23.30;35.40
74364;DHT22;62797;49.740;10.154;2022-08-19T08:36:00;23.30;35.20
74364;DHT22;62797;49.740;10.154;2022-08-19T08:38:26;23.30;35.40
74364;DHT22;62797;49.740;10.154;2022-08-19T08:40:52;23.30;35.40
74364;DHT22;62797;49.740;10.154;2022-08-19T08:45:49;23.40;35.20
74364;DHT22;62797;49.740;10.154;2022-08-19T08:48:35;23.40;35.00
74364;DHT22;62797;49.740;10.154;2022-08-19T08:51:07;23.30;35.20
74364;DHT22;62797;49.740;10.154;2022-08-19T08:53:34;23.30;35.20
74364;DHT22;62797;49.740;10.154;2022-08-19T08:56:01;23.30;35.40
74364;DHT22;62797;49.740;10.154;2022-08-19T09:00:58;23.10;38.60
74364;DHT22;62797;49.740;10.154;2022-08-19T09:03:26;22.80;39.70
74364;DHT22;62797;49.740;10.154;2022-08-19T09:05:56;22.60;43.40
74364;DHT22;62797;49.740;10.154;2022-08-19T09:10:52;22.60;43.60
74364;DHT22;62797;49.740;10.154;2022-08-19T09:15:49;22.70;42.00
74364;DHT22;62797;49.740;10.154;2022-08-19T09:18:16;22.70;41.70
74364;DHT22;62797;49.740;10.154;2022-08-19T09:20:42;22.80;41.80
74364;DHT22;62797;49.740;10.154;2022-08-19T09:23:07;22.80;41.10
74364;DHT22;62797;49.740;10.154;2022-08-19T09:25:33;22.80;41.00
74364;DHT22;62797;49.740;10.154;2022-08-19T09:27:59;22.90;40.60
74364;DHT22;62797;49.740;10.154;2022-08-19T09:30:29;22.90;40.80
74364;DHT22;62797;49.740;10.154;2022-08-19T09:32:54;22.90;41.10
74364;DHT22;62797;49.740;10.154;2022-08-19T09:35:21;23.10;40.30
74364;DHT22;62797;49.740;10.154;2022-08-19T09:37:47;23.30;39.80
74364;DHT22;62797;49.740;10.154;2022-08-19T09:40:14;23.40;39.30
74364;DHT22;62797;49.740;10.154;2022-08-19T09:42:39;23.40;39.40
74364;DHT22;62797;49.740;10.154;2022-08-19T09:45:05;23.50;39.40
74364;DHT22;62797;49.740;10.154;2022-08-19T09:47:30;23.50;38.60
74364;DHT22;62797;49.740;10.154;2022-08-19T09:49:58;23.40;39.40
74364;DHT22;62797;49.740;10.154;2022-08-19T09:52:24;23.40;39.00
74364;DHT22;62797;49.740;10.154;2022-08-19T09:54:51;23.60;39.10
74364;DHT22;62797;49.740;10.154;2022-08-19T09:57:17;23.70;38.60
74364;DHT22;62797;49.740;10.154;2022-08-19T09:59:42;23.90;38.40
74364;DHT22;62797;49.740;10.154;2022-08-19T10:02:09;23.90;38.30
74364;DHT22;62797;49.740;10.154;2022-08-19T10:04:35;23.90;38.00
74364;DHT22;62797;49.740;10.154;2022-08-19T10:07:20;23.90;38.30
74364;DHT22;62797;49.740;10.154;2022-08-19T10:09:45;23.90;38.30
74364;DHT22;62797;49.740;10.154;2022-08-19T10:12:11;23.80;38.20
74364;DHT22;62797;49.740;10.154;2022-08-19T10:14:37;23.70;37.90
74364;DHT22;62797;49.740;10.154;2022-08-19T10:17:03;23.70;38.00
74364;DHT22;62797;49.740;10.154;2022-08-19T10:19:29;23.70;37.90
74364;DHT22;62797;49.740;10.154;2022-08-19T10:22:04;23.80;38.40
74364;DHT22;62797;49.740;10.154;2022-08-19T10:24:30;24.00;38.00
74364;DHT22;62797;49.740;10.154;2022-08-19T10:26:56;24.00;37.40
74364;DHT22;62797;49.740;10.154;2022-08-19T10:29:21;24.10;37.10
74364;DHT22;62797;49.740;10.154;2022-08-19T10:31:47;24.40;36.70
74364;DHT22;62797;49.740;10.154;2022-08-19T10:34:12;24.50;36.00
74364;DHT22;62797;49.740;10.154;2022-08-19T10:36:38;24.60;36.30
74364;DHT22;62797;49.740;10.154;2022-08-19T10:39:05;24.80;35.30
74364;DHT22;62797;49.740;10.154;2022-08-19T10:41:32;24.90;34.30
74364;DHT22;62797;49.740;10.154;2022-08-19T10:44:00;25.10;34.30
74364;DHT22;62797;49.740;10.154;2022-08-19T10:46:26;25.20;33.70
74364;DHT22;62797;49.740;10.154;2022-08-19T10:48:52;25.20;33.30
74364;DHT22;62797;49.740;10.154;2022-08-19T10:51:18;25.40;32.30
74364;DHT22;62797;49.740;10.154;2022-08-19T10:54:03;25.70;32.50
74364;DHT22;62797;49.740;10.154;2022-08-19T10:56:29;25.90;31.10
74364;DHT22;62797;49.740;10.154;2022-08-19T10:59:13;26.10;30.70
74364;DHT22;62797;49.740;10.154;2022-08-19T11:01:39;26.10;30.90
74364;DHT22;62797;49.740;10.154;2022-08-19T11:04:05;26.30;32.00
74364;DHT22;62797;49.740;10.154;2022-08-19T11:06:33;26.60;30.90
74364;DHT22;62797;49.740;10.154;2022-08-19T11:08:59;26.80;28.90
74364;DHT22;62797;49.740;10.154;2022-08-19T11:11:25;26.80;29.00
74364;DHT22;62797;49.740;10.154;2022-08-19T11:13:50;26.70;28.60
74364;DHT22;62797;49.740;10.154;2022-08-19T11:16:17;26.70;28.60
74364;DHT22;62797;49.740;10.154;2022-08-19T11:18:47;26.70;28.90
74364;DHT22;62797;49.740;10.154;2022-08-19T11:23:39;26.60;29.00
74364;DHT22;62797;49.740;10.154;2022-08-19T11:26:04;26.70;29.40
74364;DHT22;62797;49.740;10.154;2022-08-19T11:28:30;26.60;29.10
74364;DHT22;62797;49.740;10.154;2022-08-19T11:30:55;26.50;29.30
74364;DHT22;62797;49.740;10.154;2022-08-19T11:33:21;26.60;29.70
74364;DHT22;62797;49.740;10.154;2022-08-19T11:35:46;26.80;29.10
74364;DHT22;62797;49.740;10.154;2022-08-19T11:38:12;26.80;28.60
74364;DHT22;62797;49.740;10.154;2022-08-19T11:40:38;26.80;27.70
74364;DHT22;62797;49.740;10.154;2022-08-19T11:43:04;26.80;26.90
74364;DHT22;62797;49.740;10.154;2022-08-19T11:45:29;26.80;27.70
74364;DHT22;62797;49.740;10.154;2022-08-19T11:47:55;27.00;26.80
74364;DHT22;62797;49.740;10.154;2022-08-19T11:50:21;27.20;26.30
74364;DHT22;62797;49.740;10.154;2022-08-19T11:52:48;27.50;26.70
74364;DHT22;62797;49.740;10.154;2022-08-19T11:55:14;27.30;26.50
74364;DHT22;62797;49.740;10.154;2022-08-19T11:57:40;27.10;27.10
74364;DHT22;62797;49.740;10.154;2022-08-19T12:00:07;27.10;27.60
74364;DHT22;62797;49.740;10.154;2022-08-19T12:02:33;27.10;27.70
74364;DHT22;62797;49.740;10.154;2022-08-19T12:04:58;26.90;26.90
74364;DHT22;62797;49.740;10.154;2022-08-19T12:07:24;26.70;27.10
74364;DHT22;62797;49.740;10.154;2022-08-19T12:09:49;26.40;28.70
74364;DHT22;62797;49.740;10.154;2022-08-19T12:12:16;26.40;28.40
74364;DHT22;62797;49.740;10.154;2022-08-19T12:14:42;26.40;29.20
74364;DHT22;62797;49.740;10.154;2022-08-19T12:17:07;26.40;28.90
74364;DHT22;62797;49.740;10.154;2022-08-19T12:19:35;26.30;29.20
74364;DHT22;62797;49.740;10.154;2022-08-19T12:22:01;26.30;29.50
74364;DHT22;62797;49.740;10.154;2022-08-19T12:24:30;26.20;30.00
74364;DHT22;62797;49.740;10.154;2022-08-19T12:26:56;26.20;30.00
74364;DHT22;62797;49.740;10.154;2022-08-19T12:29:23;26.10;31.50
74364;DHT22;62797;49.740;10.154;2022-08-19T12:31:53;25.90;31.20
74364;DHT22;62797;49.740;10.154;2022-08-19T12:34:19;25.80;31.90
74364;DHT22;62797;49.740;10.154;2022-08-19T12:36:45;25.70;34.10
74364;DHT22;62797;49.740;10.154;2022-08-19T12:39:10;25.60;35.40
74364;DHT22;62797;49.740;10.154;2022-08-19T12:41:36;25.40;36.80
74364;DHT22;62797;49.740;10.154;2022-08-19T12:44:02;25.20;37.70
74364;DHT22;62797;49.740;10.154;2022-08-19T12:46:27;25.10;38.80
74364;DHT22;62797;49.740;10.154;2022-08-19T12:48:53;25.00;38.30
74364;DHT22;62797;49.740;10.154;2022-08-19T12:51:19;24.90;38.50
74364;DHT22;62797;49.740;10.154;2022-08-19T12:53:45;24.80;39.10
74364;DHT22;62797;49.740;10.154;2022-08-19T12:56:11;24.70;38.40
74364;DHT22;62797;49.740;10.154;2022-08-19T12:58:39;24.50;38.10
74364;DHT22;62797;49.740;10.154;2022-08-19T13:01:10;24.40;38.40
74364;DHT22;62797;49.740;10.154;2022-08-19T13:03:36;24.30;39.40
74364;DHT22;62797;49.740;10.154;2022-08-19T13:06:02;24.20;39.80
74364;DHT22;62797;49.740;10.154;2022-08-19T13:08:27;24.10;40.00
74364;DHT22;62797;49.740;10.154;2022-08-19T13:10:53;24.10;40.90
74364;DHT22;62797;49.740;10.154;2022-08-19T13:13:18;24.10;41.10
74364;DHT22;62797;49.740;10.154;2022-08-19T13:15:44;24.10;40.80
74364;DHT22;62797;49.740;10.154;2022-08-19T13:18:10;24.00;40.90
74364;DHT22;62797;49.740;10.154;2022-08-19T13:20:37;23.90;40.40
74364;DHT22;62797;49.740;10.154;2022-08-19T13:23:03;23.80;40.90
74364;DHT22;62797;49.740;10.154;2022-08-19T13:25:29;23.80;41.60
74364;DHT22;62797;49.740;10.154;2022-08-19T13:27:54;23.80;42.30
74364;DHT22;62797;49.740;10.154;2022-08-19T13:30:21;23.90;41.80
74364;DHT22;62797;49.740;10.154;2022-08-19T13:33:05;23.90;41.70
74364;DHT22;62797;49.740;10.154;2022-08-19T13:35:56;23.90;41.10
74364;DHT22;62797;49.740;10.154;2022-08-19T13:38:22;23.90;41.00
74364;DHT22;62797;49.740;10.154;2022-08-19T13:40:49;24.00;40.50
74364;DHT22;62797;49.740;10.154;2022-08-19T13:43:15;24.00;40.50
74364;DHT22;62797;49.740;10.154;2022-08-19T13:45:41;24.00;39.80
74364;DHT22;62797;49.740;10.154;2022-08-19T13:48:07;24.00;39.40
74364;DHT22;62797;49.740;10.154;2022-08-19T13:50:35;24.00;39.20
74364;DHT22;62797;49.740;10.154;2022-08-19T13:53:00;23.90;39.70
74364;DHT22;62797;49.740;10.154;2022-08-19T13:55:27;23.90;40.20
74364;DHT22;62797;49.740;10.154;2022-08-19T13:57:53;23.80;40.00
74364;DHT22;62797;49.740;10.154;2022-08-19T14:00:19;23.90;40.70
74364;DHT22;62797;49.740;10.154;2022-08-19T14:02:45;23.90;41.70
74364;DHT22;62797;49.740;10.154;2022-08-19T14:05:12;23.80;41.90
74364;DHT22;62797;49.740;10.154;2022-08-19T14:07:37;23.80;42.40
74364;DHT22;62797;49.740;10.154;2022-08-19T14:10:04;23.60;42.60
74364;DHT22;62797;49.740;10.154;2022-08-19T14:12:31;23.50;44.30
74364;DHT22;62797;49.740;10.154;2022-08-19T14:14:57;23.30;45.40
74364;DHT22;62797;49.740;10.154;2022-08-19T14:17:22;23.40;46.80
74364;DHT22;62797;49.740;10.154;2022-08-19T14:19:48;23.50;46.20
74364;DHT22;62797;49.740;10.154;2022-08-19T14:22:13;23.50;45.80
74364;DHT22;62797;49.740;10.154;2022-08-19T14:24:39;23.60;43.90
74364;DHT22;62797;49.740;10.154;2022-08-19T14:27:05;23.70;44.70
74364;DHT22;62797;49.740;10.154;2022-08-19T14:29:31;23.80;42.90
74364;DHT22;62797;49.740;10.154;2022-08-19T14:31:56;23.80;42.70
74364;DHT22;62797;49.740;10.154;2022-08-19T14:34:27;23.80;42.60
74364;DHT22;62797;49.740;10.154;2022-08-19T14:36:52;23.60;43.40
74364;DHT22;62797;49.740;10.154;2022-08-19T14:39:18;23.70;43.00
74364;DHT22;62797;49.740;10.154;2022-08-19T14:41:44;23.80;42.40
74364;DHT22;62797;49.740;10.154;2022-08-19T14:44:10;23.90;41.90
74364;DHT22;62797;49.740;10.154;2022-08-19T14:46:38;23.90;41.80
74364;DHT22;62797;49.740;10.154;2022-08-19T14:49:03;23.90;43.30
74364;DHT22;62797;49.740;10.154;2022-08-19T14:51:29;24.00;41.50
74364;DHT22;62797;49.740;10.154;2022-08-19T14:53:54;24.10;40.40
74364;DHT22;62797;49.740;10.154;2022-08-19T14:56:21;24.20;40.40
74364;DHT22;62797;49.740;10.154;2022-08-19T14:58:47;24.30;39.90
74364;DHT22;62797;49.740;10.154;2022-08-19T15:01:16;24.40;38.60
74364;DHT22;62797;49.740;10.154;2022-08-19T15:03:42;24.50;38.70
74364;DHT22;62797;49.740;10.154;2022-08-19T15:06:08;24.50;37.80
74364;DHT22;62797;49.740;10.154;2022-08-19T15:08:34;24.40;37.90
74364;DHT22;62797;49.740;10.154;2022-08-19T15:11:00;24.40;36.70
74364;DHT22;62797;49.740;10.154;2022-08-19T15:13:27;24.40;36.50
74364;DHT22;62797;49.740;10.154;2022-08-19T15:15:54;24.40;37.10
74364;DHT22;62797;49.740;10.154;2022-08-19T15:18:19;24.60;38.10
74364;DHT22;62797;49.740;10.154;2022-08-19T15:20:46;24.70;38.10
74364;DHT22;62797;49.740;10.154;2022-08-19T15:23:12;24.80;37.40
74364;DHT22;62797;49.740;10.154;2022-08-19T15:25:39;24.90;37.20
74364;DHT22;62797;49.740;10.154;2022-08-19T15:28:05;24.90;36.40